Thunder radar more information blitzortung!


Radar de pluja more information rain snow radar


Visita la nostra xarxa de llocs de meteo:

Template documentation
and downloads

And another site



No particular awareness of the weather is required.    There are no Weather-warnings

Pagina Historial Weather Underground text

Diari Resum Novembre 8, 2017 Unitats:  Imperial    Mètric   Tant
« Previous Dia
SegĂźent Dia »
Diari Setmana Mensual Anual Personalitzada
  Maxima: Minima: Media:
Temperatura: TemperatureC °F 3.2 °F 8.7 °F
Punt de rosada: DewpointC °F -5.8 °F -0.6 °F
Humitat: Humidity % 46 % 52 %
Wind Speed: WindSpeedKMH mph 0.0 mph 3 mph
RĂ fegues de vent: WindSpeedGustKMH mph - -
Vent:- - SSE
Pression baro: PressurehPa in 1019.9 in -
Precipitacions: 0.0 in    
Historical Graphs
 
 
Dades de taula per Novembre 8, 2017
Temps Temperatura Punt de rosada Pression baro Vent Wind Speed RĂ fegues de vent Humitat Rainfall Rate (Hourly)
TemperatureC °F DewpointC °F PressurehPa in Calm     Humidity % HourlyPrecipMM in
00:04 4.6 °F -5.8 °F 1019.9 in WSW 3.7 mph 3.7 mph 47 % 0.0 in
00:05 3.7 °F -5.5 °F 1019.9 in West 1.6 mph 3.2 mph 51 % 0.0 in
00:15 3.6 °F -5.3 °F 1019.9 in Calm   3.2 mph 52 % 0.0 in
00:25 3.4 °F -5.6 °F 1019.9 in WSW 1.6 mph 3.2 mph 52 % 0.0 in
00:35 3.3 °F -5.6 °F 1019.9 in SW 1.6 mph 3.2 mph 52 % 0.0 in
00:45 3.4 °F -5.6 °F 1019.9 in Calm     52 % 0.0 in
00:55 3.4 °F -5.6 °F 1019.9 in SW 3.2 mph 3.2 mph 52 % 0.0 in
01:05 3.4 °F -5.6 °F 1019.9 in WSW 1.6 mph 3.2 mph 52 % 0.0 in
01:15 3.4 °F -5.6 °F 1019.9 in West 1.6 mph 3.2 mph 52 % 0.0 in
01:35 3.5 °F -5.2 °F 1019.9 in Calm   3.2 mph 53 % 0.0 in
01:45 3.5 °F -5.4 °F 1019.9 in WSW 1.6 mph 3.2 mph 52 % 0.0 in
01:55 3.7 °F -5.3 °F 1020.9 in West 1.6 mph 3.2 mph 52 % 0.0 in
02:05 4.0 °F -4.7 °F 1020.9 in NW 3.2 mph 4.8 mph 53 % 0.0 in
02:15 3.4 °F -5.3 °F 1021.9 in NNE 4.8 mph 6.4 mph 53 % 0.0 in
02:25 3.2 °F -5.7 °F 1021.9 in NNE 1.6 mph 6.4 mph 52 % 0.0 in
02:35 4.1 °F -4.6 °F 1021.9 in Calm   3.2 mph 53 % 0.0 in
02:45 4.5 °F -4.3 °F 1021.9 in Calm   3.2 mph 53 % 0.0 in
02:55 5.0 °F -3.8 °F 1021.9 in West 1.6 mph 4.8 mph 53 % 0.0 in
03:05 5.3 °F -3.8 °F 1021.9 in NW 3.2 mph 3.2 mph 52 % 0.0 in
03:15 5.9 °F -3.2 °F 1021.9 in NW 1.6 mph 4.8 mph 52 % 0.0 in
03:25 6.6 °F -2.6 °F 1021.9 in WNW 1.6 mph 3.2 mph 52 % 0.0 in
03:35 7.1 °F -2.1 °F 1021.9 in NW 3.2 mph 6.4 mph 52 % 0.0 in
03:45 7.7 °F -1.8 °F 1020.9 in NNW 3.2 mph 4.8 mph 51 % 0.0 in
03:55 8.3 °F -1.3 °F 1021.9 in NNW 1.6 mph 1.6 mph 51 % 0.0 in
04:05 8.7 °F -0.9 °F 1021.9 in ENE 1.6 mph 3.2 mph 51 % 0.0 in
04:15 9.5 °F -0.2 °F 1021.9 in ESE 1.6 mph 3.2 mph 51 % 0.0 in
04:25 9.0 °F -0.9 °F 1021.9 in NE 3.2 mph 4.8 mph 50 % 0.0 in
04:35 9.5 °F -0.4 °F 1021.9 in ENE 1.6 mph 6.4 mph 50 % 0.0 in
04:45 9.8 °F -0.4 °F 1021.9 in NE 3.2 mph 3.2 mph 49 % 0.0 in
04:55 9.5 °F -0.7 °F 1021.9 in NE 1.6 mph 3.2 mph 49 % 0.0 in
11:02 9.6 °F -0.6 °F 1021.9 in North 2.6 mph 2.6 mph 49 % 0.0 in
11:03 9.6 °F -0.6 °F 1021.9 in North 3.7 mph 3.7 mph 49 % 0.0 in
11:04 9.6 °F -0.6 °F 1021.9 in WNW 3.7 mph 3.7 mph 49 % 0.0 in
11:09 9.4 °F -1.1 °F 1021.9 in NNE 5.6 mph 5.6 mph 48 % 0.0 in
11:14 9.4 °F -1.1 °F 1021.9 in NNE 3.9 mph 3.9 mph 48 % 0.0 in
11:19 9.6 °F -0.9 °F 1021.9 in NNW 3.7 mph   48 % 0.0 in
11:24 9.6 °F -0.9 °F 1021.9 in ENE 3.7 mph 3.7 mph 48 % 0.0 in
11:29 9.8 °F -0.7 °F 1021.9 in ENE 4.2 mph 4.2 mph 48 % 0.0 in
11:34 10.0 °F -0.5 °F 1021.9 in NNW 3.7 mph 3.7 mph 48 % 0.0 in
11:39 10.2 °F -0.3 °F 1021.9 in NNE 2.3 mph   48 % 0.0 in
11:44 10.5 °F -0.1 °F 1021.9 in ENE 3.7 mph   48 % 0.0 in
11:49 10.6 °F -0.3 °F 1021.9 in WNW 3.7 mph 3.7 mph 47 % 0.0 in
11:54 10.7 °F -0.2 °F 1020.9 in ENE 4.2 mph 4.2 mph 47 % 0.0 in
11:59 10.6 °F -0.3 °F 1020.9 in NNW 3.7 mph 3.7 mph 47 % 0.0 in
12:04 10.7 °F -0.2 °F 1020.9 in NE 5.6 mph 5.6 mph 47 % 0.0 in
12:09 10.8 °F -0.1 °F 1021.9 in NE 3.7 mph 3.7 mph 47 % 0.0 in
12:14 11.2 °F 0.3 °F 1021.9 in NNW 3.7 mph 3.7 mph 47 % 0.0 in
12:19 11.2 °F 0.3 °F 1021.9 in ENE 3.9 mph 3.9 mph 47 % 0.0 in
12:24 11.4 °F 0.5 °F 1021.9 in NNW 5.6 mph 5.6 mph 47 % 0.0 in
12:29 11.5 °F 0.6 °F 1021.9 in ENE 7.4 mph 7.4 mph 47 % 0.0 in
12:34 11.4 °F 0.5 °F 1021.9 in NNE 8.7 mph 8.7 mph 47 % 0.0 in
12:39 11.2 °F 0.0 °F 1021.9 in ENE 7.4 mph 7.4 mph 46 % 0.0 in
12:44 11.1 °F -0.1 °F 1021.9 in NNE 5.6 mph 5.6 mph 46 % 0.0 in
12:49 11.3 °F 0.1 °F 1021.9 in ESE 3.9 mph 3.9 mph 46 % 0.0 in
12:54 11.4 °F 0.2 °F 1021.9 in ENE 7.4 mph 7.4 mph 46 % 0.0 in
12:59 11.5 °F 0.3 °F 1021.9 in NNE 4.2 mph 4.2 mph 46 % 0.0 in
13:04 11.7 °F 0.4 °F 1021.9 in NE 4.7 mph 4.7 mph 46 % 0.0 in
13:09 11.9 °F 0.6 °F 1021.9 in NNE 6.1 mph 6.1 mph 46 % 0.0 in
13:14 11.9 °F 0.6 °F 1021.9 in NE 3.7 mph 3.7 mph 46 % 0.0 in
13:19 11.8 °F 0.6 °F 1021.9 in ENE 6.1 mph 6.1 mph 46 % 0.0 in
13:24 11.7 °F 0.4 °F 1021.9 in NE 7.4 mph 7.4 mph 46 % 0.0 in
13:29 11.8 °F 0.6 °F 1021.9 in ENE 7.4 mph 7.4 mph 46 % 0.0 in
13:34 11.9 °F 0.6 °F 1021.9 in NNE 5.6 mph 5.6 mph 46 % 0.0 in
13:44 11.9 °F 0.6 °F 1020.9 in NNE 7.4 mph 7.4 mph 46 % 0.0 in
13:49 11.9 °F 0.6 °F 1020.9 in NNE 4.2 mph   46 % 0.0 in
13:54 11.8 °F 0.6 °F 1020.9 in NNE 3.7 mph   46 % 0.0 in
13:59 11.9 °F 0.9 °F 1020.9 in NNE 3.7 mph 3.7 mph 47 % 0.0 in
14:04 11.8 °F 0.6 °F 1020.9 in NNE 6.4 mph 6.4 mph 46 % 0.0 in
14:09 11.7 °F 0.7 °F 1021.9 in NNE 5.6 mph 5.6 mph 47 % 0.0 in
14:14 11.7 °F 0.7 °F 1021.9 in West 3.7 mph 3.7 mph 47 % 0.0 in
14:19 11.7 °F 0.7 °F 1021.9 in NNE 5.6 mph 5.6 mph 47 % 0.0 in
14:24 11.7 °F 0.7 °F 1020.9 in NE 7.4 mph 7.4 mph 47 % 0.0 in
14:29 11.7 °F 0.7 °F 1020.9 in NNE 5.6 mph 5.6 mph 47 % 0.0 in
14:34 11.7 °F 0.7 °F 1020.9 in NW 3.7 mph 3.7 mph 47 % 0.0 in
14:39 11.7 °F 0.7 °F 1021.9 in NE 5.6 mph 5.6 mph 47 % 0.0 in
14:44 11.7 °F 0.7 °F 1021.9 in NE 7.4 mph 7.4 mph 47 % 0.0 in
14:49 11.7 °F 0.7 °F 1021.9 in NNE 7.4 mph 7.4 mph 47 % 0.0 in
14:54 11.7 °F 0.7 °F 1020.9 in NNE 2.6 mph 2.6 mph 47 % 0.0 in
14:59 11.7 °F 0.7 °F 1020.9 in ENE 7.4 mph 7.4 mph 47 % 0.0 in
15:04 11.6 °F 0.7 °F 1020.9 in NNE 5.6 mph 5.6 mph 47 % 0.0 in
15:09 11.6 °F 0.7 °F 1021.9 in ENE 5.6 mph 5.6 mph 47 % 0.0 in
15:14 11.6 °F 0.7 °F 1021.9 in NNE 3.9 mph 3.9 mph 47 % 0.0 in
15:19 11.6 °F 0.7 °F 1021.9 in ENE 3.7 mph 3.7 mph 47 % 0.0 in
15:24 11.5 °F 0.8 °F 1020.9 in NW 3.7 mph 3.7 mph 48 % 0.0 in
15:29 11.5 °F 0.8 °F 1020.9 in North 3.7 mph   48 % 0.0 in
15:34 11.6 °F 0.9 °F 1020.9 in WNW 3.7 mph 3.7 mph 48 % 0.0 in
15:39 11.5 °F 0.8 °F 1020.9 in NNW 3.7 mph 3.7 mph 48 % 0.0 in
15:44 11.5 °F 0.8 °F 1020.9 in NE 1.9 mph   48 % 0.0 in
15:49 11.5 °F 0.8 °F 1020.9 in NNE 5.0 mph 5.0 mph 48 % 0.0 in
15:54 11.5 °F 1.2 °F 1021.9 in NE 2.3 mph 2.3 mph 49 % 0.0 in
15:59 11.5 °F 1.2 °F 1021.9 in WNW 1.9 mph   49 % 0.0 in
16:04 11.6 °F 1.2 °F 1021.9 in NNW 1.9 mph   49 % 0.0 in
16:09 11.6 °F 1.2 °F 1020.9 in NNE 3.9 mph 3.9 mph 49 % 0.0 in
16:14 11.6 °F 1.2 °F 1020.9 in NNE 1.9 mph 1.9 mph 49 % 0.0 in
16:19 11.6 °F 1.2 °F 1020.9 in NNE 1.9 mph   49 % 0.0 in
16:24 11.6 °F 1.5 °F 1020.9 in North 2.6 mph 2.6 mph 50 % 0.0 in
16:29 11.5 °F 1.4 °F 1020.9 in ENE 1.9 mph   50 % 0.0 in
16:34 11.4 °F 1.3 °F 1020.9 in East 3.7 mph 3.7 mph 50 % 0.0 in
16:39 11.3 °F 1.2 °F 1020.9 in NW 4.2 mph 4.2 mph 50 % 0.0 in
16:44 11.3 °F 1.2 °F 1020.9 in WNW 5.0 mph 5.0 mph 50 % 0.0 in
16:49 11.2 °F 1.2 °F 1020.9 in North 2.6 mph 2.6 mph 50 % 0.0 in
16:54 11.1 °F 1.1 °F 1019.9 in ENE 5.6 mph 5.6 mph 50 % 0.0 in
16:59 11.0 °F 0.9 °F 1019.9 in North 3.9 mph 3.9 mph 50 % 0.0 in
17:04 10.9 °F 0.9 °F 1019.9 in NNE 5.6 mph 5.6 mph 50 % 0.0 in
17:09 10.9 °F 0.9 °F 1020.9 in North 2.3 mph   50 % 0.0 in
17:14 10.8 °F 0.8 °F 1020.9 in NNW 3.7 mph   50 % 0.0 in
17:19 10.8 °F 0.8 °F 1020.9 in WNW 2.6 mph 2.6 mph 50 % 0.0 in
17:24 10.7 °F 0.9 °F 1019.9 in NW 1.9 mph   51 % 0.0 in
17:29 10.7 °F 0.9 °F 1019.9 in West 1.9 mph   51 % 0.0 in
17:34 10.7 °F 0.9 °F 1019.9 in NNE 1.9 mph   51 % 0.0 in
17:39 10.6 °F 0.9 °F 1020.9 in NE 1.9 mph 1.9 mph 51 % 0.0 in
17:44 10.6 °F 0.9 °F 1020.9 in Calm     51 % 0.0 in
17:49 10.5 °F 0.8 °F 1020.9 in Calm     51 % 0.0 in
17:54 10.4 °F 0.7 °F 1020.9 in Calm     51 % 0.0 in
17:59 10.3 °F 0.6 °F 1020.9 in Calm     51 % 0.0 in
18:04 10.2 °F 0.5 °F 1020.9 in Calm     51 % 0.0 in
18:09 10.2 °F 0.5 °F 1020.9 in WNW 1.9 mph 1.9 mph 51 % 0.0 in
18:14 10.0 °F 0.6 °F 1020.9 in Calm     52 % 0.0 in
18:15 7.9 °F -0.6 °F 1022.9 in NNW 1.6 mph 3.2 mph 55 % 0.0 in
18:19 10.0 °F 0.6 °F 1020.9 in Calm     52 % 0.0 in
18:24 9.8 °F 0.4 °F 1021.9 in Calm     52 % 0.0 in
18:25 7.8 °F -0.7 °F 1021.9 in ESE 1.6 mph 1.6 mph 55 % 0.0 in
18:29 9.8 °F 0.4 °F 1021.9 in WNW 2.3 mph 2.3 mph 52 % 0.0 in
18:34 9.7 °F 0.3 °F 1021.9 in West 1.9 mph 1.9 mph 52 % 0.0 in
18:35 7.7 °F -0.8 °F 1021.9 in SSW 1.6 mph 1.6 mph 55 % 0.0 in
18:39 9.6 °F 0.5 °F 1020.9 in SW 1.9 mph   53 % 0.0 in
18:44 9.4 °F 0.3 °F 1020.9 in Calm     53 % 0.0 in
18:45 7.6 °F -0.9 °F 1021.9 in SW 1.6 mph 6.4 mph 55 % 0.0 in
18:49 9.4 °F 0.3 °F 1020.9 in NE 3.2 mph 3.2 mph 53 % 0.0 in
18:54 9.3 °F 0.4 °F 1021.9 in NW 2.3 mph   54 % 0.0 in
18:55 7.4 °F -1.1 °F 1022.9 in WSW 3.2 mph 4.8 mph 55 % 0.0 in
18:59 9.3 °F 0.4 °F 1021.9 in NW 1.9 mph 1.9 mph 54 % 0.0 in
19:05 7.2 °F -1.2 °F 1022.9 in Calm   3.2 mph 55 % 0.0 in
19:09 9.3 °F 0.2 °F 1021.9 in NW 3.7 mph 3.7 mph 53 % 0.0 in
19:14 9.2 °F 0.4 °F 1021.9 in NNE 1.9 mph   54 % 0.0 in
19:15 6.9 °F -1.6 °F 1021.9 in SW 3.2 mph 3.2 mph 55 % 0.0 in
19:19 9.2 °F 0.4 °F 1021.9 in NW 1.9 mph   54 % 0.0 in
19:24 9.2 °F 0.4 °F 1021.9 in Calm     54 % 0.0 in
19:29 9.2 °F 0.4 °F 1021.9 in Calm     54 % 0.0 in
19:34 9.2 °F 0.4 °F 1021.9 in NW 1.9 mph 1.9 mph 54 % 0.0 in
19:35 6.5 °F -1.7 °F 1021.9 in WSW 3.2 mph 3.2 mph 56 % 0.0 in
19:39 9.2 °F 0.4 °F 1021.9 in WNW 1.9 mph   54 % 0.0 in
19:44 9.2 °F 0.4 °F 1021.9 in WNW 3.5 mph 3.5 mph 54 % 0.0 in
19:45 6.2 °F -1.9 °F 1021.9 in SW 3.2 mph 3.2 mph 56 % 0.0 in
19:49 9.2 °F 0.4 °F 1021.9 in NNE 3.2 mph 3.2 mph 54 % 0.0 in
19:54 9.2 °F 0.4 °F 1021.9 in Calm     54 % 0.0 in
19:55 6.0 °F -1.9 °F 1021.9 in SW 1.6 mph 4.8 mph 57 % 0.0 in
19:59 9.1 °F 0.3 °F 1021.9 in South 1.9 mph   54 % 0.0 in
20:04 9.0 °F 0.2 °F 1021.9 in WSW 2.6 mph   54 % 0.0 in
20:05 5.8 °F -2.1 °F 1021.9 in SW 1.6 mph 3.2 mph 57 % 0.0 in
20:14 8.4 °F -0.1 °F 1021.9 in NE 2.6 mph 2.6 mph 55 % 0.0 in
20:15 5.8 °F -2.1 °F 1022.9 in WSW 3.2 mph 3.2 mph 57 % 0.0 in
20:24 8.4 °F 0.1 °F 1021.9 in Calm     56 % 0.0 in
20:25 5.7 °F -1.9 °F 1022.9 in Calm   3.2 mph 58 % 0.0 in
20:29 8.4 °F 0.1 °F 1021.9 in Calm     56 % 0.0 in
20:34 8.3 °F 0.0 °F 1021.9 in WNW 1.9 mph 1.9 mph 56 % 0.0 in
20:35 5.6 °F -2.0 °F 1022.9 in WSW 1.6 mph 3.2 mph 58 % 0.0 in
20:39 8.2 °F -0.1 °F 1020.9 in North 1.9 mph 1.9 mph 56 % 0.0 in
20:44 8.3 °F 0.0 °F 1020.9 in Calm     56 % 0.0 in
20:45 5.6 °F -1.8 °F 1021.9 in Calm   3.2 mph 59 % 0.0 in
20:49 8.3 °F 0.0 °F 1020.9 in West 1.9 mph 1.9 mph 56 % 0.0 in
20:54 8.2 °F -0.1 °F 1021.9 in Calm     56 % 0.0 in
20:55 5.5 °F -1.9 °F 1021.9 in WSW 1.6 mph 3.2 mph 59 % 0.0 in
20:59 8.1 °F -0.2 °F 1021.9 in West 1.4 mph   56 % 0.0 in
21:04 8.0 °F -0.3 °F 1021.9 in WNW 1.9 mph   56 % 0.0 in
21:05 5.4 °F -2.0 °F 1021.9 in West 1.6 mph 3.2 mph 59 % 0.0 in
21:09 8.0 °F -0.3 °F 1021.9 in Calm     56 % 0.0 in
21:14 8.1 °F -0.2 °F 1021.9 in West 3.7 mph 3.7 mph 56 % 0.0 in
21:15 5.4 °F -1.8 °F 1021.9 in West 1.6 mph 3.2 mph 60 % 0.0 in
21:19 8.0 °F -0.3 °F 1021.9 in WSW 3.7 mph 3.7 mph 56 % 0.0 in
21:24 7.8 °F -0.4 °F 1020.9 in WSW 1.9 mph   56 % 0.0 in
21:25 5.1 °F -2.1 °F 1022.9 in North 3.2 mph 4.8 mph 60 % 0.0 in
21:29 7.9 °F -0.3 °F 1020.9 in SE 1.9 mph 1.9 mph 56 % 0.0 in
21:34 8.1 °F -0.2 °F 1020.9 in North 1.9 mph   56 % 0.0 in
21:35 4.7 °F -2.2 °F 1022.9 in Calm   1.6 mph 61 % 0.0 in
21:39 8.2 °F -0.1 °F 1021.9 in WSW 3.5 mph   56 % 0.0 in
21:44 8.4 °F -0.1 °F 1021.9 in WSW 3.7 mph 3.7 mph 55 % 0.0 in
21:45 4.5 °F -2.4 °F 1022.9 in Calm   1.6 mph 61 % 0.0 in
21:49 8.5 °F -0.1 °F 1021.9 in WSW 1.9 mph   55 % 0.0 in
21:54 8.6 °F 0.1 °F 1021.9 in WSW 2.6 mph 2.6 mph 55 % 0.0 in
21:55 4.4 °F -2.5 °F 1022.9 in ESE 3.2 mph 3.2 mph 61 % 0.0 in
21:59 8.6 °F 0.1 °F 1021.9 in WSW 3.7 mph 3.7 mph 55 % 0.0 in
22:04 8.3 °F -0.2 °F 1021.9 in West 5.6 mph 5.6 mph 55 % 0.0 in
22:05 4.4 °F -2.3 °F 1022.9 in Calm   3.2 mph 62 % 0.0 in
22:09 8.3 °F -0.2 °F 1021.9 in WSW 3.7 mph 3.7 mph 55 % 0.0 in
22:14 8.4 °F -0.1 °F 1021.9 in NNW 3.7 mph 3.7 mph 55 % 0.0 in
22:15 4.3 °F -2.3 °F 1022.9 in West 1.6 mph 3.2 mph 62 % 0.0 in
22:19 8.5 °F -0.1 °F 1021.9 in West 5.8 mph 5.8 mph 55 % 0.0 in
22:24 8.6 °F -0.2 °F 1021.9 in West 7.4 mph 7.4 mph 54 % 0.0 in
22:25 4.3 °F -2.1 °F 1022.9 in NE 1.6 mph 3.2 mph 63 % 0.0 in
22:29 8.7 °F -0.1 °F 1021.9 in West 4.2 mph 4.2 mph 54 % 0.0 in
22:34 8.8 °F 0.0 °F 1021.9 in East 7.4 mph 7.4 mph 54 % 0.0 in
22:35 4.5 °F -1.9 °F 1022.9 in NE 1.6 mph 1.6 mph 63 % 0.0 in
22:39 8.9 °F 0.1 °F 1021.9 in West 5.6 mph 5.6 mph 54 % 0.0 in
22:44 8.9 °F 0.1 °F 1021.9 in West 7.6 mph 7.6 mph 54 % 0.0 in
22:45 4.6 °F -2.1 °F 1022.9 in NE 1.6 mph 3.2 mph 62 % 0.0 in
22:49 8.8 °F 0.0 °F 1021.9 in WSW 7.4 mph 7.4 mph 54 % 0.0 in
22:54 8.7 °F -0.1 °F 1021.9 in WSW 5.6 mph 5.6 mph 54 % 0.0 in
22:55 4.4 °F -2.3 °F 1022.9 in NNE 1.6 mph 3.2 mph 62 % 0.0 in
22:59 8.6 °F -0.2 °F 1021.9 in SW 5.6 mph 5.6 mph 54 % 0.0 in
23:04 8.4 °F -0.4 °F 1021.9 in WSW 3.7 mph 3.9 mph 54 % 0.0 in
23:05 4.4 °F -2.1 °F 1022.9 in NNE 1.6 mph 1.6 mph 63 % 0.0 in
23:09 8.3 °F -0.5 °F 1021.9 in SW 3.7 mph 3.7 mph 54 % 0.0 in
23:14 8.2 °F -0.6 °F 1021.9 in WSW 5.6 mph 5.6 mph 54 % 0.0 in
23:15 4.3 °F -2.1 °F 1022.9 in Calm   1.6 mph 63 % 0.0 in
23:19 8.2 °F -0.6 °F 1021.9 in West 9.3 mph 9.3 mph 54 % 0.0 in
23:24 8.1 °F -0.7 °F 1021.9 in West 5.6 mph 5.6 mph 54 % 0.0 in
23:25 4.3 °F -2.1 °F 1022.9 in NNE 3.2 mph 4.8 mph 63 % 0.0 in
23:29 8.1 °F -0.7 °F 1021.9 in SW 3.7 mph 3.7 mph 54 % 0.0 in
23:34 8.0 °F -0.8 °F 1021.9 in SSW 3.7 mph 3.7 mph 54 % 0.0 in
23:35 4.2 °F -2.2 °F 1022.9 in NNE 1.6 mph 4.8 mph 63 % 0.0 in
23:39 7.8 °F -0.7 °F 1022.9 in SW 1.9 mph   55 % 0.0 in
23:44 7.7 °F -0.8 °F 1022.9 in SW 1.9 mph   55 % 0.0 in
23:45 4.1 °F -2.3 °F 1022.9 in NE 1.6 mph 3.2 mph 63 % 0.0 in
23:49 7.6 °F -0.9 °F 1022.9 in West 6.1 mph 6.1 mph 55 % 0.0 in
23:54 7.7 °F -0.8 °F 1022.9 in West 3.7 mph 3.7 mph 55 % 0.0 in
23:55 3.9 °F -2.5 °F 1023.9 in Calm   1.6 mph 63 % 0.0 in
23:59 7.8 °F -0.7 °F 1022.9 in WNW 5.6 mph 5.6 mph 55 % 0.0 in
Meteo Sesrovires
Elogis d' Weather Underground - 2 mb

Guio original per  Jim McMurry - jmcmurry@mwt.net Adaptat per a la plantilla per  Wim van der Kuil - Leuven-Template.eu

Trobareu la nostra informacio del temps tambe a:

Weather Underground

AWEKAS